Time;durP1;ratioP1;P1;durP2;ratioP2;P2;SDS_P1;SDS_P2;PMS_P1;PMS_P2;Temp;Humidity;BMP_temperature;BMP_pressure;BME280_temperature;BME280_humidity;BME280_pressure;Samples;Min_cycle;Max_cycle;Signal;HPM_P1;HPM_P2
2022/01/20 00:03:19;;;;;;;1999.90;999.90;;;4.90;99.90;;;;;;5115858;28;20481;-76
2022/01/20 00:08:47;;;;;;;1999.90;999.90;;;4.80;99.90;;;;;;5116042;28;20395;-76
2022/01/20 00:27:48;;;;;;;1999.90;999.90;;;4.40;99.90;;;;;;5115570;28;20169;-76
2022/01/20 00:33:01;;;;;;;1999.90;999.90;;;4.40;99.90;;;;;;5115567;28;20169;-76
2022/01/20 00:35:31;;;;;;;1999.90;999.90;;;4.30;99.90;;;;;;5096736;28;20248;-76
2022/01/20 00:37:57;;;;;;;1999.90;999.90;;;4.30;99.90;;;;;;5115443;28;20166;-76
2022/01/20 00:40:24;;;;;;;1999.90;999.90;;;4.30;99.90;;;;;;5115348;28;20703;-76
2022/01/20 00:42:50;;;;;;;1999.90;999.90;;;4.30;99.90;;;;;;5114376;28;20565;-76
2022/01/20 00:45:16;;;;;;;1999.90;999.90;;;4.30;99.90;;;;;;5114661;28;20249;-76
2022/01/20 00:47:42;;;;;;;1999.90;999.90;;;4.30;99.90;;;;;;5115192;28;20487;-76
2022/01/20 00:50:10;;;;;;;1999.90;999.90;;;4.30;99.90;;;;;;5114950;28;20551;-76
2022/01/20 00:52:36;;;;;;;1999.90;999.90;;;4.30;99.90;;;;;;5115027;28;20252;-76
2022/01/20 00:55:04;;;;;;;1999.90;999.90;;;4.30;99.90;;;;;;5114634;28;20169;-76
2022/01/20 00:57:30;;;;;;;1999.90;999.90;;;4.30;99.90;;;;;;5114758;28;20272;-76
2022/01/20 00:59:55;;;;;;;1999.90;999.90;;;4.30;99.90;;;;;;5114849;28;20207;-76
2022/01/20 01:02:21;;;;;;;1999.90;999.90;;;4.30;99.90;;;;;;5114792;28;20268;-76
2022/01/20 01:04:47;;;;;;;1999.90;999.90;;;4.30;99.90;;;;;;5114451;28;20169;-76
2022/01/20 01:09:42;;;;;;;1999.90;999.90;;;4.30;99.90;;;;;;5114784;28;20490;-76
2022/01/20 01:12:14;;;;;;;1999.90;999.90;;;4.30;99.90;;;;;;5114497;28;20215;-76
2022/01/20 01:14:46;;;;;;;1999.90;999.90;;;4.30;99.90;;;;;;5114390;28;20565;-76
2022/01/20 01:22:21;;;;;;;1999.90;999.90;;;4.30;99.90;;;;;;5114549;28;20251;-76
2022/01/20 01:24:54;;;;;;;1999.90;999.90;;;4.30;99.90;;;;;;5114146;28;20806;-76
2022/01/20 01:27:23;;;;;;;1999.90;999.90;;;4.30;99.90;;;;;;5114229;28;20541;-76
2022/01/20 01:32:26;;;;;;;1999.90;999.90;;;4.30;99.90;;;;;;5114252;28;20170;-76
2022/01/20 01:34:53;;;;;;;1999.90;999.90;;;4.20;99.90;;;;;;5113929;28;20618;-76
2022/01/20 01:40:09;;;;;;;1999.90;999.90;;;4.20;99.90;;;;;;5081919;28;20181;-76
2022/01/20 01:42:47;;;;;;;1999.90;999.90;;;4.20;99.90;;;;;;5114072;28;20638;-76
2022/01/20 01:45:15;;;;;;;1999.90;999.90;;;4.20;99.90;;;;;;5113542;28;20540;-76
2022/01/20 01:47:43;;;;;;;1999.90;999.90;;;4.20;99.90;;;;;;5114007;28;20169;-76
2022/01/20 01:50:09;;;;;;;1999.90;999.90;;;4.20;99.90;;;;;;5113864;28;20169;-76
2022/01/20 01:52:35;;;;;;;1999.90;999.90;;;4.30;99.90;;;;;;5113915;28;20218;-76
2022/01/20 01:55:00;;;;;;;1999.90;999.90;;;4.30;99.90;;;;;;5112357;28;20169;-76
2022/01/20 01:57:27;;;;;;;1999.90;999.90;;;4.40;99.90;;;;;;5113669;28;20591;-76
2022/01/20 01:59:54;;;;;;;1999.90;999.90;;;4.50;99.90;;;;;;5113677;28;20176;-76
2022/01/20 02:02:22;;;;;;;1999.90;999.90;;;4.50;99.90;;;;;;5113601;28;20225;-76
2022/01/20 02:04:49;;;;;;;1999.90;999.90;;;4.60;99.90;;;;;;5113317;28;20539;-76
2022/01/20 02:18:00;;;;;;;1999.90;999.90;;;4.80;99.90;;;;;;5113678;28;20407;-76
2022/01/20 02:20:26;;;;;;;1999.90;999.90;;;4.80;99.90;;;;;;5113369;28;20405;-76
2022/01/20 02:22:52;;;;;;;1999.90;999.90;;;4.80;99.90;;;;;;5113196;28;20197;-76
2022/01/20 02:25:24;;;;;;;1999.90;999.90;;;4.80;99.90;;;;;;5112759;28;20164;-76
2022/01/20 02:27:50;;;;;;;1999.90;999.90;;;4.80;99.90;;;;;;5113187;28;20239;-76
2022/01/20 02:30:19;;;;;;;1999.90;999.90;;;4.80;99.90;;;;;;5112995;28;20491;-75
2022/01/20 02:32:55;;;;;;;1999.90;999.90;;;4.80;99.90;;;;;;5113073;28;20400;-76
2022/01/20 02:35:21;;;;;;;1999.90;999.90;;;4.70;99.90;;;;;;5112638;28;20403;-76
2022/01/20 02:37:49;;;;;;;1999.90;999.90;;;4.70;99.90;;;;;;5113002;28;20498;-76
2022/01/20 02:45:24;;;;;;;1999.90;999.90;;;4.80;99.90;;;;;;5112457;28;20242;-76
2022/01/20 02:47:50;;;;;;;1999.90;999.90;;;4.70;99.90;;;;;;5112881;28;20490;-76
2022/01/20 02:50:16;;;;;;;1999.90;999.90;;;4.70;99.90;;;;;;5112715;28;20158;-76
2022/01/20 02:52:42;;;;;;;1999.90;999.90;;;4.70;99.90;;;;;;5112794;28;20166;-76
2022/01/20 02:55:07;;;;;;;1999.90;999.90;;;4.70;99.90;;;;;;5112331;28;20205;-76
2022/01/20 02:57:33;;;;;;;1999.90;999.90;;;4.70;99.90;;;;;;5112587;28;20185;-76
2022/01/20 02:59:59;;;;;;;1999.90;999.90;;;4.60;99.90;;;;;;5112683;28;20460;-76
2022/01/20 03:02:24;;;;;;;1999.90;999.90;;;4.50;99.90;;;;;;5112541;28;20216;-76
2022/01/20 03:04:51;;;;;;;1999.90;999.90;;;4.40;99.90;;;;;;5111976;28;20161;-76
2022/01/20 03:07:17;;;;;;;1999.90;999.90;;;4.40;99.90;;;;;;5112444;28;20178;-75
2022/01/20 03:09:42;;;;;;;1999.90;999.90;;;4.30;99.90;;;;;;5112427;28;20181;-76
2022/01/20 03:12:08;;;;;;;1999.90;999.90;;;4.30;99.90;;;;;;5112532;28;20222;-76
2022/01/20 03:14:34;;;;;;;1999.90;999.90;;;4.20;99.90;;;;;;5112193;28;20170;-76
2022/01/20 03:16:59;;;;;;;1999.90;999.90;;;4.20;99.90;;;;;;5112418;28;20185;-76
2022/01/20 03:19:26;;;;;;;1999.90;999.90;;;4.20;99.90;;;;;;5112410;28;20662;-76
2022/01/20 03:21:51;;;;;;;1999.90;999.90;;;4.20;99.90;;;;;;5112333;28;20228;-75
2022/01/20 03:24:17;;;;;;;1999.90;999.90;;;4.10;99.90;;;;;;5111944;28;20426;-76
2022/01/20 03:26:43;;;;;;;1999.90;999.90;;;4.10;99.90;;;;;;5112282;28;20189;-75
2022/01/20 03:29:10;;;;;;;1999.90;999.90;;;4.00;99.90;;;;;;5112475;28;20166;-76
2022/01/20 03:31:36;;;;;;;1999.90;999.90;;;4.00;99.90;;;;;;5112255;28;20157;-76
2022/01/20 03:34:01;;;;;;;1999.90;999.90;;;4.00;99.90;;;;;;5111952;28;20260;-76
2022/01/20 03:36:27;;;;;;;1999.90;999.90;;;4.00;99.90;;;;;;5112196;28;20455;-76
2022/01/20 03:38:53;;;;;;;1999.90;999.90;;;4.10;99.90;;;;;;5112207;28;20170;-77
2022/01/20 03:41:19;;;;;;;1999.90;999.90;;;4.10;99.90;;;;;;5112268;28;20169;-76
2022/01/20 03:43:45;;;;;;;1999.90;999.90;;;4.10;99.90;;;;;;5112186;28;20408;-77
2022/01/20 03:46:13;;;;;;;1999.90;999.90;;;4.10;99.90;;;;;;5111742;28;20209;-75
2022/01/20 03:48:50;;;;;;;1999.90;999.90;;;4.10;99.90;;;;;;5112167;28;20166;-76
2022/01/20 03:51:22;;;;;;;1999.90;999.90;;;4.10;99.90;;;;;;5112166;28;20165;-76
2022/01/20 03:53:49;;;;;;;1999.90;999.90;;;4.20;99.90;;;;;;5112114;28;20192;-76
2022/01/20 03:56:15;;;;;;;1999.90;999.90;;;4.20;99.90;;;;;;5111734;28;20186;-76
2022/01/20 03:58:41;;;;;;;1999.90;999.90;;;4.20;99.90;;;;;;5112048;28;20257;-76
2022/01/20 04:01:06;;;;;;;1999.90;999.90;;;4.30;99.90;;;;;;5112039;28;20630;-75
2022/01/20 04:03:32;;;;;;;1999.90;999.90;;;4.30;99.90;;;;;;5111967;28;20815;-76
2022/01/20 04:05:57;;;;;;;1999.90;999.90;;;4.30;99.90;;;;;;5111592;28;20197;-76
2022/01/20 04:08:35;;;;;;;1999.90;999.90;;;4.30;99.90;;;;;;5112347;28;20520;-76
2022/01/20 04:11:04;;;;;;;1999.90;999.90;;;4.30;99.90;;;;;;5111928;28;20169;-76
2022/01/20 04:13:30;;;;;;;1999.90;999.90;;;4.30;99.90;;;;;;5111888;28;20178;-76
2022/01/20 04:16:00;;;;;;;1999.90;999.90;;;4.30;99.90;;;;;;5111513;28;20266;-76
2022/01/20 04:18:28;;;;;;;1999.90;999.90;;;4.20;99.90;;;;;;5114478;28;20256;-76
2022/01/20 04:20:54;;;;;;;1999.90;999.90;;;4.30;99.90;;;;;;5115674;28;20165;-76
2022/01/20 04:23:20;;;;;;;1999.90;999.90;;;4.20;99.90;;;;;;5115536;28;20685;-76
2022/01/20 04:25:47;;;;;;;1999.90;999.90;;;4.20;99.90;;;;;;5115108;28;20186;-76
2022/01/20 04:28:12;;;;;;;1999.90;999.90;;;4.10;99.90;;;;;;5115521;28;20222;-76
2022/01/20 04:30:38;;;;;;;1999.90;999.90;;;4.10;99.90;;;;;;5115486;28;20165;-76
2022/01/20 04:33:04;;;;;;;1999.90;999.90;;;4.20;99.90;;;;;;5115405;28;20646;-76
2022/01/20 04:35:30;;;;;;;1999.90;999.90;;;4.20;99.90;;;;;;5115004;28;20170;-76
2022/01/20 04:37:58;;;;;;;1999.90;999.90;;;4.30;99.90;;;;;;5115312;28;20396;-76
2022/01/20 04:40:23;;;;;;;1999.90;999.90;;;4.30;99.90;;;;;;5115336;28;20162;-75
2022/01/20 04:42:50;;;;;;;1999.90;999.90;;;4.30;99.90;;;;;;5115169;28;20200;-76
2022/01/20 04:45:29;;;;;;;1999.90;999.90;;;4.30;99.90;;;;;;5114673;28;20162;-76
2022/01/20 04:58:36;;;;;;;1999.90;999.90;;;4.20;99.90;;;;;;5115009;28;20219;-76
2022/01/20 05:01:03;;;;;;;1999.90;999.90;;;4.20;99.90;;;;;;5114840;28;20571;-76
2022/01/20 05:03:29;;;;;;;1999.90;999.90;;;4.10;99.90;;;;;;5114729;28;20213;-76
2022/01/20 05:05:55;;;;;;;1999.90;999.90;;;4.20;99.90;;;;;;5114380;28;20186;-76
2022/01/20 05:08:23;;;;;;;1999.90;999.90;;;4.20;99.90;;;;;;5114642;28;20411;-76
2022/01/20 05:10:50;;;;;;;1999.90;999.90;;;4.20;99.90;;;;;;5114689;28;20268;-76
2022/01/20 05:13:32;;;;;;;1999.90;999.90;;;4.20;99.90;;;;;;5114573;28;20214;-76
2022/01/20 05:15:58;;;;;;;1999.90;999.90;;;4.20;99.90;;;;;;5114310;28;20243;-76
2022/01/20 05:18:24;;;;;;;1999.90;999.90;;;4.20;99.90;;;;;;5114640;28;20168;-76
2022/01/20 05:20:51;;;;;;;1999.90;999.90;;;4.10;99.90;;;;;;5114389;28;20181;-76
2022/01/20 05:23:16;;;;;;;1999.90;999.90;;;4.10;99.90;;;;;;5114389;28;20182;-75
2022/01/20 05:25:42;;;;;;;1999.90;999.90;;;4.20;99.90;;;;;;5114073;28;20189;-75
2022/01/20 05:28:07;;;;;;;1999.90;999.90;;;4.20;99.90;;;;;;5114109;28;20248;-76
2022/01/20 05:30:33;;;;;;;1999.90;999.90;;;4.20;99.90;;;;;;5114352;28;20177;-76
2022/01/20 05:33:00;;;;;;;1999.90;999.90;;;4.30;99.90;;;;;;5114314;28;20165;-76
2022/01/20 05:35:27;;;;;;;1999.90;999.90;;;4.20;99.90;;;;;;5113811;28;20173;-76
2022/01/20 05:37:52;;;;;;;1999.90;999.90;;;4.20;99.90;;;;;;5114144;28;20253;-76
2022/01/20 05:40:18;;;;;;;1999.90;999.90;;;4.20;99.90;;;;;;5114196;28;20609;-76
2022/01/20 05:42:43;;;;;;;1999.90;999.90;;;4.20;99.90;;;;;;5113902;28;20242;-76
2022/01/20 05:45:10;;;;;;;1999.90;999.90;;;4.10;99.90;;;;;;5095708;28;20568;-76
2022/01/20 05:47:42;;;;;;;1999.90;999.90;;;4.10;99.90;;;;;;5114257;28;20197;-76
2022/01/20 05:50:09;;;;;;;1999.90;999.90;;;4.10;99.90;;;;;;5113957;28;20173;-76
2022/01/20 05:52:41;;;;;;;1999.90;999.90;;;4.10;99.90;;;;;;5114141;28;20494;-76
2022/01/20 05:55:15;;;;;;;1999.90;999.90;;;4.10;99.90;;;;;;5113767;28;20165;-76
2022/01/20 05:57:41;;;;;;;1999.90;999.90;;;4.20;99.90;;;;;;5114290;28;20154;-76
2022/01/20 06:00:13;;;;;;;1999.90;999.90;;;4.10;99.90;;;;;;5095988;28;20181;-76
2022/01/20 06:05:24;;;;;;;1999.90;999.90;;;4.10;99.90;;;;;;5114952;28;20192;-76
2022/01/20 06:07:50;;;;;;;1999.90;999.90;;;4.20;99.90;;;;;;5098682;28;20166;-77
2022/01/20 06:10:16;;;;;;;1999.90;999.90;;;4.10;99.90;;;;;;5117894;28;20177;-76
2022/01/20 06:12:41;;;;;;;1999.90;999.90;;;4.10;99.90;;;;;;5100663;28;20645;-77
2022/01/20 06:15:10;;;;;;;1999.90;999.90;;;4.00;99.90;;;;;;5095818;28;20421;-78
2022/01/20 06:17:37;;;;;;;1999.90;999.90;;;3.90;99.90;;;;;;5113332;28;20669;-77
2022/01/20 06:20:06;;;;;;;1999.90;999.90;;;3.90;99.90;;;;;;5113415;28;20173;-78
2022/01/20 06:22:32;;;;;;;1999.90;999.90;;;3.80;99.90;;;;;;5113558;28;20197;-79
2022/01/20 06:24:57;;;;;;;1999.90;999.90;;;3.80;99.90;;;;;;5113195;28;20176;-78
2022/01/20 06:27:23;;;;;;;1999.90;999.90;;;3.80;99.90;;;;;;5113251;28;20185;-78
2022/01/20 06:29:49;;;;;;;1999.90;999.90;;;3.70;99.90;;;;;;5113254;28;20655;-79
2022/01/20 06:32:14;;;;;;;1999.90;999.90;;;3.70;99.90;;;;;;5113303;28;20197;-78
2022/01/20 06:34:40;;;;;;;1999.90;999.90;;;3.70;99.90;;;;;;5112956;28;20166;-78
2022/01/20 06:37:06;;;;;;;1999.90;999.90;;;3.70;99.90;;;;;;5113316;28;20710;-79
2022/01/20 06:39:31;;;;;;;1999.90;999.90;;;3.60;99.90;;;;;;5112815;28;20215;-79
2022/01/20 06:41:57;;;;;;;1999.90;999.90;;;3.50;99.90;;;;;;5112872;28;20193;-80
2022/01/20 06:44:23;;;;;;;1999.90;999.90;;;3.50;99.90;;;;;;5113141;28;20596;-78
2022/01/20 06:46:49;;;;;;;1999.90;999.90;;;3.40;99.90;;;;;;5113035;28;20201;-78
2022/01/20 06:49:17;;;;;;;1999.90;999.90;;;3.40;99.90;;;;;;5113087;28;20670;-78
2022/01/20 06:51:44;;;;;;;1999.90;999.90;;;3.40;99.90;;;;;;5113022;28;20661;-79
2022/01/20 06:54:09;;;;;;;1999.90;999.90;;;3.40;99.90;;;;;;5112484;28;20162;-78
2022/01/20 06:56:35;;;;;;;1999.90;999.90;;;3.30;99.90;;;;;;5112841;28;20570;-78
2022/01/20 06:59:00;;;;;;;1999.90;999.90;;;3.30;99.90;;;;;;5112896;28;20168;-78
2022/01/20 07:01:26;;;;;;;1999.90;999.90;;;3.30;99.90;;;;;;5112889;28;20207;-79
2022/01/20 07:03:52;;;;;;;1999.90;999.90;;;3.30;99.90;;;;;;5112667;28;20174;-78
2022/01/20 07:06:17;;;;;;;1999.90;999.90;;;3.30;99.90;;;;;;5112547;28;20197;-78
2022/01/20 07:08:43;;;;;;;1999.90;999.90;;;3.40;99.90;;;;;;5112679;28;20256;-78
2022/01/20 07:11:08;;;;;;;1999.90;999.90;;;3.40;99.90;;;;;;5112933;28;20165;-78
2022/01/20 07:13:35;;;;;;;1999.90;999.90;;;3.40;99.90;;;;;;5112512;28;20260;-77
2022/01/20 07:16:02;;;;;;;1999.90;999.90;;;3.50;99.90;;;;;;5112233;28;20272;-77
2022/01/20 07:18:27;;;;;;;1999.90;999.90;;;3.50;99.90;;;;;;5112639;28;20428;-77
2022/01/20 07:20:53;;;;;;;1999.90;999.90;;;3.50;99.90;;;;;;5112427;28;20171;-77
2022/01/20 07:23:19;;;;;;;1999.90;999.90;;;3.50;99.90;;;;;;5112288;28;20196;-77
2022/01/20 07:25:44;;;;;;;1999.90;999.90;;;3.50;99.90;;;;;;5112040;28;20182;-76
2022/01/20 07:28:10;;;;;;;1999.90;999.90;;;3.50;99.90;;;;;;5112468;28;20245;-77
2022/01/20 07:30:36;;;;;;;1999.90;999.90;;;3.50;99.90;;;;;;5112404;28;20189;-76
2022/01/20 07:33:05;;;;;;;1999.90;999.90;;;3.50;99.90;;;;;;5112418;28;20180;-76
2022/01/20 07:35:31;;;;;;;1999.90;999.90;;;3.50;99.90;;;;;;5111957;28;20407;-76
2022/01/20 07:37:57;;;;;;;1999.90;999.90;;;3.40;99.90;;;;;;5112241;28;20554;-76
2022/01/20 07:40:23;;;;;;;1999.90;999.90;;;3.40;99.90;;;;;;5112286;28;20177;-76
2022/01/20 07:42:49;;;;;;;1999.90;999.90;;;3.30;99.90;;;;;;5112107;28;20193;-77
2022/01/20 07:45:14;;;;;;;1999.90;999.90;;;3.20;99.90;;;;;;5111714;28;20177;-76
2022/01/20 07:47:40;;;;;;;1999.90;999.90;;;3.20;99.90;;;;;;5112144;28;20201;-76
2022/01/20 07:50:06;;;;;;;1999.90;999.90;;;3.10;99.90;;;;;;5112148;28;20240;-76
2022/01/20 07:52:31;;;;;;;1999.90;999.90;;;3.10;99.90;;;;;;5115147;28;20172;-76
2022/01/20 07:54:57;;;;;;;1999.90;999.90;;;3.00;99.90;;;;;;5097611;28;20173;-76
2022/01/20 07:57:23;;;;;;;1999.90;999.90;;;3.10;99.90;;;;;;5116072;28;20215;-76
2022/01/20 07:59:48;;;;;;;1999.90;999.90;;;3.10;99.90;;;;;;5116088;28;20613;-76
2022/01/20 08:02:16;;;;;;;1999.90;999.90;;;3.10;99.90;;;;;;5115931;28;20200;-76
2022/01/20 08:04:42;;;;;;;1999.90;999.90;;;3.10;99.90;;;;;;5115695;28;20157;-76
2022/01/20 08:07:07;;;;;;;1999.90;999.90;;;3.10;99.90;;;;;;5115832;28;20181;-76
2022/01/20 08:09:33;;;;;;;1999.90;999.90;;;3.20;99.90;;;;;;5115882;28;20395;-76
2022/01/20 08:11:59;;;;;;;1999.90;999.90;;;3.10;99.90;;;;;;5115924;28;20169;-76
2022/01/20 08:14:25;;;;;;;1999.90;999.90;;;3.20;99.90;;;;;;5115543;28;20668;-76
2022/01/20 08:16:51;;;;;;;1999.90;999.90;;;3.20;99.90;;;;;;5115574;28;20182;-76
2022/01/20 08:19:16;;;;;;;1999.90;999.90;;;3.20;99.90;;;;;;5115806;28;20180;-76
2022/01/20 08:21:42;;;;;;;1999.90;999.90;;;3.30;99.90;;;;;;5115608;28;20900;-76
2022/01/20 08:24:08;;;;;;;1999.90;999.90;;;3.40;99.90;;;;;;5115444;28;20193;-76
2022/01/20 08:26:33;;;;;;;1999.90;999.90;;;3.40;99.90;;;;;;5115482;28;21056;-76
2022/01/20 08:28:59;;;;;;;1999.90;999.90;;;3.40;99.90;;;;;;5115567;28;20170;-76
2022/01/20 08:31:25;;;;;;;1999.90;999.90;;;3.50;99.90;;;;;;5115518;28;20249;-76
2022/01/20 08:33:50;;;;;;;1999.90;999.90;;;3.50;99.90;;;;;;5115547;28;20249;-76
2022/01/20 08:36:16;;;;;;;1999.90;999.90;;;3.50;99.90;;;;;;5115365;28;20189;-76
2022/01/20 08:38:42;;;;;;;1999.90;999.90;;;3.60;99.90;;;;;;5115346;28;20161;-76
2022/01/20 08:41:07;;;;;;;1999.90;999.90;;;3.60;99.90;;;;;;5115370;28;20625;-76
2022/01/20 08:43:38;;;;;;;1999.90;999.90;;;3.60;99.90;;;;;;5115149;28;20326;-76
2022/01/20 08:46:08;;;;;;;1999.90;999.90;;;3.60;99.90;;;;;;5114719;28;20205;-76
2022/01/20 08:48:38;;;;;;;1999.90;999.90;;;3.60;99.90;;;;;;5115103;28;20169;-76
2022/01/20 08:51:06;;;;;;;1999.90;999.90;;;3.50;99.90;;;;;;5115119;28;20169;-76
2022/01/20 08:53:32;;;;;;;1999.90;999.90;;;3.50;99.90;;;;;;5115086;28;20175;-76
2022/01/20 08:55:59;;;;;;;1999.90;999.90;;;3.50;99.90;;;;;;5114823;28;20565;-76
2022/01/20 08:58:25;;;;;;;1999.90;999.90;;;3.50;99.90;;;;;;5114918;28;20772;-76
2022/01/20 09:00:50;;;;;;;1999.90;999.90;;;3.50;99.90;;;;;;5114840;28;20174;-76
2022/01/20 09:03:16;;;;;;;1999.90;999.90;;;3.50;99.90;;;;;;5114303;28;20205;-76
2022/01/20 09:05:42;;;;;;;1999.90;999.90;;;3.60;99.90;;;;;;5114460;28;20182;-76
2022/01/20 09:08:09;;;;;;;1999.90;999.90;;;3.60;99.90;;;;;;5114708;28;20168;-75
2022/01/20 09:10:39;;;;;;;1999.90;999.90;;;3.60;99.90;;;;;;5114750;28;20166;-76
2022/01/20 09:15:50;;;;;;;1999.90;999.90;;;3.70;99.90;;;;;;5114341;28;20249;-76
2022/01/20 09:18:18;;;;;;;1999.90;999.90;;;3.80;99.90;;;;;;5096433;28;20170;-76
2022/01/20 09:20:44;;;;;;;1999.90;999.90;;;3.90;99.90;;;;;;5114582;28;20237;-76
2022/01/20 09:23:10;;;;;;;1999.90;999.90;;;4.00;99.90;;;;;;5114446;28;20212;-76
2022/01/20 09:25:38;;;;;;;1999.90;999.90;;;4.00;99.90;;;;;;5114271;28;20185;-75
2022/01/20 09:28:04;;;;;;;1999.90;999.90;;;3.90;99.90;;;;;;5114489;28;20395;-75
2022/01/20 09:30:30;;;;;;;1999.90;999.90;;;3.90;99.90;;;;;;5114084;28;20256;-75
2022/01/20 09:33:09;;;;;;;1999.90;999.90;;;3.90;99.90;;;;;;5114287;28;20205;-75
2022/01/20 09:35:36;;;;;;;1999.90;999.90;;;3.90;99.90;;;;;;5114045;28;20564;-75
2022/01/20 09:38:04;;;;;;;1999.90;999.90;;;3.80;99.90;;;;;;5114567;28;20542;-76
2022/01/20 09:40:31;;;;;;;1999.90;999.90;;;3.80;99.90;;;;;;5114166;28;20181;-75
2022/01/20 09:42:57;;;;;;;1999.90;999.90;;;3.80;99.90;;;;;;5113892;28;20250;-75
2022/01/20 09:45:23;;;;;;;1999.90;999.90;;;3.70;99.90;;;;;;5113570;28;20165;-75
2022/01/20 09:47:49;;;;;;;1999.90;999.90;;;3.70;99.90;;;;;;5114049;28;20677;-76
2022/01/20 09:50:19;;;;;;;1999.90;999.90;;;3.70;99.90;;;;;;5095663;28;20172;-76
2022/01/20 09:52:46;;;;;;;1999.90;999.90;;;3.70;99.90;;;;;;5114020;28;20222;-76
2022/01/20 09:55:12;;;;;;;1999.90;999.90;;;3.80;99.90;;;;;;5113501;28;20181;-76
2022/01/20 09:57:38;;;;;;;1999.90;999.90;;;4.00;99.90;;;;;;5113687;28;20189;-76
2022/01/20 10:00:08;;;;;;;1999.90;999.90;;;4.10;99.90;;;;;;5113571;28;20407;-76
2022/01/20 10:02:34;;;;;;;1999.90;999.90;;;4.40;99.90;;;;;;5113609;28;20197;-76
2022/01/20 10:04:59;;;;;;;1999.90;999.90;;;4.80;99.90;;;;;;5113339;28;20639;-76
2022/01/20 10:07:32;;;;;;;1999.90;999.90;;;4.90;99.90;;;;;;5144932;22;20296;-72
2022/01/20 10:09:57;;;;;;;1999.90;999.90;;;4.90;99.90;;;;;;5093235;28;20251;-72
2022/01/20 10:12:28;;;;;;;1999.90;999.90;;;4.80;99.90;;;;;;5093135;28;20208;-72
2022/01/20 10:14:56;;;;;;;1999.90;999.90;;;4.70;99.90;;;;;;5091796;28;20555;-72
2022/01/20 10:17:27;;;;;;;1999.90;999.90;;;4.70;99.90;;;;;;5093154;28;20202;-71
2022/01/20 10:19:55;;;;;;;1999.90;999.90;;;4.60;99.90;;;;;;5093100;28;20178;-73
2022/01/20 10:22:23;;;;;;;1999.90;999.90;;;4.50;99.90;;;;;;5092830;28;20674;-72
2022/01/20 10:25:03;;;;;;;1999.90;999.90;;;4.50;99.90;;;;;;5092547;28;20399;-73
2022/01/20 10:27:33;;;;;;;1999.90;999.90;;;4.50;99.90;;;;;;5092997;28;20240;-73
2022/01/20 10:30:07;;;;;;;1999.90;999.90;;;4.50;99.90;;;;;;5092772;28;20162;-72
2022/01/20 10:32:47;;;;;;;1999.90;999.90;;;4.50;99.90;;;;;;5092802;28;20178;-72
2022/01/20 10:35:15;;;;;;;1999.90;999.90;;;4.60;99.90;;;;;;5092530;28;20169;-72
2022/01/20 10:37:53;;;;;;;1999.90;999.90;;;4.70;99.90;;;;;;5092421;28;20201;-72
2022/01/20 10:40:21;;;;;;;1999.90;999.90;;;4.70;99.90;;;;;;5092652;28;20173;-72
2022/01/20 10:42:47;;;;;;;1999.90;999.90;;;4.70;99.90;;;;;;5092477;28;20198;-72
2022/01/20 10:45:26;;;;;;;1999.90;999.90;;;4.70;99.90;;;;;;5092305;28;20172;-73
2022/01/20 10:47:55;;;;;;;1999.90;999.90;;;4.80;99.90;;;;;;5092460;28;20186;-72
2022/01/20 10:50:24;;;;;;;1999.90;999.90;;;4.80;99.90;;;;;;5074296;28;20643;-71
2022/01/20 10:52:52;;;;;;;1999.90;999.90;;;4.70;99.90;;;;;;5086709;28;20178;-72
2022/01/20 10:55:30;;;;;;;1999.90;999.90;;;4.70;99.90;;;;;;5088214;28;20174;-72
2022/01/20 10:57:57;;;;;;;1999.90;999.90;;;4.80;99.90;;;;;;5086632;28;20193;-72
2022/01/20 11:00:25;;;;;;;1999.90;999.90;;;4.80;99.90;;;;;;5086249;28;20186;-72
2022/01/20 11:02:56;;;;;;;1999.90;999.90;;;5.00;99.90;;;;;;5087208;28;21305;-72
2022/01/20 11:05:23;;;;;;;1999.90;999.90;;;5.10;99.90;;;;;;5084891;28;20182;-72
2022/01/20 11:07:50;;;;;;;1999.90;999.90;;;5.10;99.90;;;;;;5086821;28;20454;-73
2022/01/20 11:10:17;;;;;;;1999.90;999.90;;;5.10;99.90;;;;;;5088921;28;20174;-73
2022/01/20 11:12:43;;;;;;;1999.90;999.90;;;5.10;99.90;;;;;;5088122;28;20170;-72
2022/01/20 11:15:17;;;;;;;1999.90;999.90;;;5.10;99.90;;;;;;5083187;28;20432;-71
2022/01/20 11:17:44;;;;;;;1999.90;999.90;;;5.00;99.90;;;;;;5081801;28;20480;-70
2022/01/20 11:20:15;;;;;;;1999.90;999.90;;;5.00;99.90;;;;;;5084979;28;20185;-70
2022/01/20 11:22:53;;;;;;;1999.90;999.90;;;4.90;99.90;;;;;;5090367;28;20186;-70
2022/01/20 11:25:22;;;;;;;1999.90;999.90;;;4.80;99.90;;;;;;5083296;28;20642;-70
2022/01/20 11:27:51;;;;;;;1999.90;999.90;;;4.80;99.90;;;;;;5097070;28;20289;-71
2022/01/20 11:30:21;;;;;;;1999.90;999.90;;;4.80;99.90;;;;;;5097160;28;20158;-70
2022/01/20 11:33:00;;;;;;;1999.90;999.90;;;4.80;99.90;;;;;;5097437;28;20190;-69
2022/01/20 11:35:59;;;;;;;1999.90;999.90;;;4.80;99.90;;;;;;5096767;28;20173;-70
2022/01/20 11:38:35;;;;;;;1999.90;999.90;;;4.80;99.90;;;;;;5041787;28;20202;-72
2022/01/20 11:41:02;;;;;;;1999.90;999.90;;;4.60;99.90;;;;;;5097477;28;20222;-71
2022/01/20 11:43:39;;;;;;;1999.90;999.90;;;4.50;99.90;;;;;;5097325;28;20288;-70
2022/01/20 11:46:11;;;;;;;1999.90;999.90;;;4.30;99.90;;;;;;5096283;28;20150;-69
2022/01/20 11:48:48;;;;;;;1999.90;999.90;;;4.10;99.90;;;;;;5097638;28;20193;-71
2022/01/20 11:51:13;;;;;;;1999.90;999.90;;;4.10;99.90;;;;;;5096910;28;20154;-72
2022/01/20 11:53:42;;;;;;;1999.90;999.90;;;3.90;99.90;;;;;;5097618;28;20173;-72
2022/01/20 11:56:09;;;;;;;1999.90;999.90;;;3.50;99.90;;;;;;5096799;28;20173;-71
2022/01/20 11:58:35;;;;;;;1999.90;999.90;;;3.40;99.90;;;;;;5096983;28;20190;-72
2022/01/20 12:01:07;;;;;;;1999.90;999.90;;;3.30;99.90;;;;;;5097268;28;20169;-72
2022/01/20 12:03:48;;;;;;;1999.90;999.90;;;3.40;99.90;;;;;;5097255;28;20436;-72
2022/01/20 12:06:19;;;;;;;1999.90;999.90;;;3.40;99.90;;;;;;5096421;28;20178;-72
2022/01/20 12:08:55;;;;;;;1999.90;999.90;;;3.60;99.90;;;;;;5096996;28;20196;-71
2022/01/20 12:11:32;;;;;;;1999.90;999.90;;;4.60;99.90;;;;;;5097344;28;20200;-72
2022/01/20 12:13:58;;;;;;;1999.90;999.90;;;5.30;99.90;;;;;;5096558;28;20199;-72
2022/01/20 12:16:24;;;;;;;1999.90;999.90;;;5.90;99.90;;;;;;5096677;28;20162;-72
2022/01/20 12:18:51;;;;;;;1999.90;999.90;;;6.30;99.90;;;;;;5096939;28;20182;-72
2022/01/20 12:21:16;;;;;;;1999.90;999.90;;;6.80;99.90;;;;;;5096941;28;20428;-72
2022/01/20 12:23:44;;;;;;;1999.90;999.90;;;6.70;99.90;;;;;;5096466;28;20881;-72
2022/01/20 12:26:10;;;;;;;1999.90;999.90;;;6.70;99.90;;;;;;5087896;28;20468;-72
2022/01/20 12:28:35;;;;;;;1999.90;999.90;;;6.90;99.90;;;;;;5096602;28;20416;-72
2022/01/20 12:31:03;;;;;;;1999.90;999.90;;;7.20;99.90;;;;;;5097067;28;20294;-72
2022/01/20 12:33:32;;;;;;;1999.90;999.90;;;7.40;99.90;;;;;;5096919;28;20927;-72
2022/01/20 12:36:03;;;;;;;1999.90;999.90;;;7.40;99.90;;;;;;5096259;28;20418;-72
2022/01/20 12:38:39;;;;;;;1999.90;999.90;;;7.40;99.90;;;;;;5093732;28;20416;-72
2022/01/20 12:41:07;;;;;;;1999.90;999.90;;;7.60;99.90;;;;;;5093580;28;20757;-72
2022/01/20 12:43:53;;;;;;;1999.90;999.90;;;7.60;99.90;;;;;;5093485;28;20821;-72
2022/01/20 12:46:23;;;;;;;1999.90;999.90;;;7.50;99.90;;;;;;5092896;28;20918;-72
2022/01/20 12:49:04;;;;;;;1999.90;999.90;;;7.50;99.90;;;;;;5093766;28;20454;-72
2022/01/20 12:51:35;;;;;;;1999.90;999.90;;;7.70;99.90;;;;;;5093025;28;20973;-72
2022/01/20 12:54:05;;;;;;;1999.90;999.90;;;8.10;99.90;;;;;;5093347;28;20412;-72
2022/01/20 12:56:34;;;;;;;1999.90;999.90;;;7.90;99.90;;;;;;5093616;28;20408;-72
2022/01/20 12:59:00;;;;;;;1999.90;999.90;;;7.40;99.90;;;;;;5093105;28;20527;-71
2022/01/20 13:01:36;;;;;;;1999.90;999.90;;;7.20;99.90;;;;;;5093476;28;20487;-71
2022/01/20 13:04:01;;;;;;;1999.90;999.90;;;7.10;99.90;;;;;;5092800;28;20532;-72
2022/01/20 13:06:29;;;;;;;1999.90;999.90;;;7.20;99.90;;;;;;5093060;28;20957;-72
2022/01/20 13:09:03;;;;;;;1999.90;999.90;;;7.60;99.90;;;;;;5092629;28;20451;-72
2022/01/20 13:11:32;;;;;;;1999.90;999.90;;;7.60;99.90;;;;;;5093525;28;20380;-70
2022/01/20 13:13:58;;;;;;;1999.90;999.90;;;8.10;99.90;;;;;;5073652;28;20443;-70
2022/01/20 13:16:24;;;;;;;1999.90;999.90;;;8.40;99.90;;;;;;5093066;28;21197;-70
2022/01/20 13:18:57;;;;;;;1999.90;999.90;;;7.80;99.90;;;;;;5093240;28;20456;-70
2022/01/20 13:21:54;;;;;;;1999.90;999.90;;;7.30;99.90;;;;;;5092610;28;20422;-71